createdAt,value
2018-12-16T00:03:57.315Z,22.40
2018-12-16T00:09:00.608Z,18.30
2018-12-16T00:14:04.082Z,19.53
2018-12-16T00:19:07.429Z,23.57
2018-12-16T00:24:10.699Z,22.30
2018-12-16T00:29:13.287Z,22.60
2018-12-16T00:34:16.556Z,25.67
2018-12-16T00:39:19.779Z,18.60
2018-12-16T00:44:23.027Z,17.97
2018-12-16T00:49:26.250Z,18.20
2018-12-16T00:54:29.474Z,24.03
2018-12-16T00:59:32.714Z,19.00
2018-12-16T01:04:35.942Z,22.87
2018-12-16T01:09:39.242Z,20.50
2018-12-16T01:14:42.489Z,14.90
2018-12-16T01:19:45.803Z,21.77
2018-12-16T01:24:49.043Z,27.17
2018-12-16T01:29:52.250Z,24.70
2018-12-16T01:34:55.539Z,22.13
2018-12-16T01:39:58.801Z,24.10
2018-12-16T01:45:02.175Z,25.33
2018-12-16T01:50:05.632Z,18.23
2018-12-16T01:55:09.238Z,21.47
2018-12-16T02:00:12.739Z,20.90
2018-12-16T02:05:16.013Z,19.73
2018-12-16T02:10:19.390Z,20.50
2018-12-16T02:15:22.778Z,19.27
2018-12-16T02:20:26.063Z,26.70
2018-12-16T02:25:29.337Z,24.63
2018-12-16T02:30:32.635Z,19.90
2018-12-16T02:35:35.890Z,22.93
2018-12-16T02:40:39.201Z,24.17
2018-12-16T02:45:42.429Z,21.87
2018-12-16T02:50:45.640Z,24.23
2018-12-16T02:55:48.849Z,20.30
2018-12-16T03:00:52.179Z,21.73
2018-12-16T03:05:55.411Z,20.60
2018-12-16T03:10:58.695Z,22.40
2018-12-16T03:16:01.950Z,22.33
2018-12-16T03:21:05.193Z,20.50
2018-12-16T03:26:08.453Z,19.17
2018-12-16T03:31:11.787Z,23.30
2018-12-16T03:36:15.009Z,21.77
2018-12-16T03:41:18.226Z,22.80
2018-12-16T03:46:21.476Z,29.57
2018-12-16T03:51:24.706Z,22.10
2018-12-16T03:56:27.951Z,26.37
2018-12-16T04:06:33.698Z,23.10
2018-12-16T04:11:36.928Z,20.83
2018-12-16T04:16:40.351Z,30.27
2018-12-16T04:21:43.615Z,24.70
2018-12-16T04:26:46.959Z,23.70
2018-12-16T04:31:50.265Z,27.20
2018-12-16T04:36:53.494Z,25.23
2018-12-16T04:41:56.750Z,26.70
2018-12-16T04:46:59.979Z,24.87
2018-12-16T04:52:03.296Z,24.07
2018-12-16T04:57:06.620Z,28.57
2018-12-16T05:02:09.943Z,27.33
2018-12-16T05:07:13.202Z,26.33
2018-12-16T05:12:16.511Z,23.93
2018-12-16T05:17:19.760Z,31.17
2018-12-16T05:22:23.006Z,21.80
2018-12-16T05:27:26.259Z,27.57
2018-12-16T05:32:29.486Z,27.77
2018-12-16T05:37:32.719Z,23.40
2018-12-16T05:42:36.034Z,27.00
2018-12-16T05:47:39.271Z,23.40
2018-12-16T05:52:42.502Z,21.20
2018-12-16T05:57:45.743Z,26.03
2018-12-16T06:02:48.978Z,26.57
2018-12-16T06:07:52.220Z,30.17
2018-12-16T06:12:55.457Z,26.90
2018-12-16T06:17:58.693Z,23.40
2018-12-16T06:23:01.965Z,27.30
2018-12-16T06:28:06.309Z,25.73
2018-12-16T06:33:09.642Z,24.87
2018-12-16T06:38:12.871Z,24.93
2018-12-16T06:43:16.198Z,28.03
2018-12-16T06:48:19.431Z,30.13
2018-12-16T06:53:22.657Z,30.00
2018-12-16T06:58:25.897Z,36.93
2018-12-16T07:03:29.150Z,30.70
2018-12-16T07:08:32.367Z,27.83
2018-12-16T07:13:35.603Z,33.20
2018-12-16T07:18:38.937Z,35.50
2018-12-16T07:23:42.232Z,31.17
2018-12-16T07:28:45.582Z,26.40
2018-12-16T07:33:48.897Z,30.23
2018-12-16T07:38:52.160Z,34.37
2018-12-16T07:43:55.519Z,28.97
2018-12-16T07:48:58.899Z,31.93
2018-12-16T07:54:02.196Z,22.00
2018-12-16T07:59:05.576Z,74.63
2018-12-16T08:04:09.210Z,70.53
2018-12-16T08:09:12.748Z,56.50
2018-12-16T08:14:15.999Z,43.90
2018-12-16T08:19:19.314Z,52.07
2018-12-16T08:24:23.331Z,45.93
2018-12-16T08:29:26.674Z,43.90
2018-12-16T08:34:29.955Z,50.13
2018-12-16T08:39:33.233Z,44.97
2018-12-16T08:44:36.462Z,43.13
2018-12-16T08:49:39.710Z,36.97
2018-12-16T08:54:42.941Z,33.30
2018-12-16T08:59:46.329Z,37.63
2018-12-16T09:04:49.568Z,32.93
2018-12-16T09:09:52.804Z,41.43
2018-12-16T09:14:56.042Z,38.80
2018-12-16T09:19:59.396Z,32.03
2018-12-16T09:25:02.743Z,29.67
2018-12-16T09:30:08.438Z,26.80
2018-12-16T09:35:11.727Z,34.43
2018-12-16T09:40:14.070Z,39.20
2018-12-16T09:45:17.294Z,33.07
2018-12-16T09:50:20.202Z,36.53
2018-12-16T09:55:23.411Z,42.70
2018-12-16T10:00:26.713Z,37.20
2018-12-16T10:05:30.093Z,38.63
2018-12-16T10:10:33.322Z,39.23
2018-12-16T10:15:36.568Z,43.57
2018-12-16T10:20:39.796Z,43.13
2018-12-16T10:25:43.010Z,36.60
2018-12-16T10:30:46.251Z,44.13
2018-12-16T10:35:53.231Z,37.43
2018-12-16T10:40:56.465Z,36.70
2018-12-16T10:45:59.691Z,37.30
2018-12-16T10:51:02.900Z,40.13
2018-12-16T11:01:14.135Z,32.77
2018-12-16T11:06:17.450Z,38.47
2018-12-16T11:11:20.866Z,31.53
2018-12-16T11:16:24.090Z,35.83
2018-12-16T11:21:27.363Z,33.37
2018-12-16T11:26:30.574Z,31.57
2018-12-16T11:31:33.814Z,29.10
2018-12-16T11:36:37.059Z,33.50
2018-12-16T11:41:40.274Z,31.90
2018-12-16T11:46:43.573Z,33.20
2018-12-16T11:51:47.047Z,34.00
2018-12-16T11:56:50.281Z,40.23
2018-12-16T12:01:53.525Z,30.43
2018-12-16T12:06:56.746Z,29.23
2018-12-16T12:12:00.554Z,31.00
2018-12-16T12:17:03.886Z,29.93
2018-12-16T12:22:07.264Z,28.23
2018-12-16T12:27:10.478Z,28.40
2018-12-16T12:32:13.730Z,35.27
2018-12-16T12:37:16.975Z,28.43
2018-12-16T12:42:20.221Z,31.30
2018-12-16T12:47:23.450Z,27.33
2018-12-16T12:52:26.674Z,30.10
2018-12-16T12:57:29.906Z,31.10
2018-12-16T13:02:33.155Z,29.17
2018-12-16T13:07:36.395Z,31.80
2018-12-16T13:12:39.616Z,31.93
2018-12-16T13:17:42.855Z,30.03
2018-12-16T13:22:46.067Z,28.97
2018-12-16T13:27:49.382Z,34.00
2018-12-16T13:32:52.634Z,35.63
2018-12-16T13:37:55.851Z,28.73
2018-12-16T13:42:59.074Z,34.57
2018-12-16T13:48:02.381Z,29.70
2018-12-16T13:53:05.686Z,23.80
2018-12-16T13:58:08.922Z,25.80
2018-12-16T14:03:12.211Z,31.13
2018-12-16T14:08:15.449Z,27.57
2018-12-16T14:13:18.678Z,38.10
2018-12-16T14:18:21.920Z,30.63
2018-12-16T14:23:25.130Z,30.53
2018-12-16T14:28:28.410Z,31.13
2018-12-16T14:33:31.995Z,27.20
2018-12-16T14:38:35.299Z,27.10
2018-12-16T14:43:38.494Z,34.03
2018-12-16T14:48:41.735Z,32.30
2018-12-16T14:53:45.150Z,32.27
2018-12-16T14:58:48.389Z,27.87
2018-12-16T15:03:51.627Z,27.03
2018-12-16T15:08:54.881Z,29.07
2018-12-16T15:13:58.095Z,25.43
2018-12-16T15:19:01.372Z,27.50
2018-12-16T15:24:04.659Z,30.43
2018-12-16T15:29:07.874Z,31.37
2018-12-16T15:34:11.091Z,29.40
2018-12-16T15:39:14.318Z,27.20
2018-12-16T15:44:17.571Z,28.20
2018-12-16T15:49:20.790Z,32.70
2018-12-16T15:54:24.052Z,24.97
2018-12-16T15:59:27.334Z,27.17
2018-12-16T16:04:30.107Z,25.07
2018-12-16T16:09:33.342Z,25.47
2018-12-16T16:14:36.558Z,27.90
2018-12-16T16:19:39.781Z,23.20
2018-12-16T16:24:43.000Z,23.70
2018-12-16T16:29:46.222Z,30.77
2018-12-16T16:34:49.447Z,23.40
2018-12-16T16:39:52.697Z,26.70
2018-12-16T16:44:55.970Z,25.63
2018-12-16T16:49:58.826Z,22.73
2018-12-16T16:55:02.154Z,23.47
2018-12-16T17:00:06.631Z,27.40
2018-12-16T17:05:09.989Z,25.93
2018-12-16T17:10:13.378Z,23.17
2018-12-16T17:15:16.675Z,28.17
2018-12-16T17:20:20.045Z,22.57
2018-12-16T17:25:23.257Z,19.53
2018-12-16T17:30:26.498Z,20.53
2018-12-16T17:35:29.708Z,19.70
2018-12-16T17:40:33.006Z,20.60
2018-12-16T17:45:36.238Z,18.97
2018-12-16T17:50:39.547Z,22.60
2018-12-16T17:55:42.840Z,20.80
2018-12-16T18:00:46.233Z,24.40
2018-12-16T18:05:49.442Z,26.93
2018-12-16T18:10:52.746Z,18.40
2018-12-16T18:15:55.962Z,19.50
2018-12-16T18:20:59.172Z,24.03
2018-12-16T18:26:02.430Z,20.13
2018-12-16T18:31:05.753Z,22.67
2018-12-16T18:36:09.050Z,23.77
2018-12-16T18:41:12.338Z,19.50
2018-12-16T18:46:15.552Z,19.40
2018-12-16T18:51:18.956Z,16.70
2018-12-16T18:56:22.162Z,24.77
2018-12-16T19:01:25.449Z,17.43
2018-12-16T19:06:28.661Z,17.90
2018-12-16T19:11:31.878Z,17.00
2018-12-16T19:16:35.166Z,21.03
2018-12-16T19:21:38.458Z,18.60
2018-12-16T19:26:41.802Z,16.37
2018-12-16T19:31:45.019Z,21.63
2018-12-16T19:36:48.362Z,20.50
2018-12-16T19:41:51.593Z,17.73
2018-12-16T19:46:54.827Z,24.80
2018-12-16T19:51:58.758Z,18.70
2018-12-16T19:57:05.230Z,17.37
2018-12-16T20:02:07.861Z,20.40
2018-12-16T20:07:11.150Z,21.63
2018-12-16T20:12:14.354Z,24.00
2018-12-16T20:17:19.271Z,22.57
2018-12-16T20:22:22.641Z,20.40
2018-12-16T20:27:25.869Z,29.70
2018-12-16T20:32:29.294Z,23.87
2018-12-16T20:37:32.782Z,18.53
2018-12-16T20:42:35.989Z,26.63
2018-12-16T20:47:39.206Z,23.60
2018-12-16T20:52:42.434Z,23.60
2018-12-16T20:57:45.635Z,22.83
2018-12-16T21:02:48.864Z,22.47
2018-12-16T21:07:52.265Z,22.80
2018-12-16T21:13:00.999Z,22.50
2018-12-16T21:18:09.743Z,19.00
2018-12-16T21:23:13.158Z,20.20
2018-12-16T21:28:16.362Z,18.40
2018-12-16T21:33:19.687Z,25.03
2018-12-16T21:38:22.903Z,21.67
2018-12-16T21:43:26.129Z,20.57
2018-12-16T21:48:29.375Z,20.00
2018-12-16T21:53:32.607Z,23.43
2018-12-16T21:58:35.837Z,29.90
2018-12-16T22:03:39.089Z,24.53
2018-12-16T22:08:42.304Z,21.43
2018-12-16T22:13:46.149Z,24.37
2018-12-16T22:18:49.398Z,22.40
2018-12-16T22:23:52.616Z,18.80
2018-12-16T22:28:55.902Z,22.57
2018-12-16T22:33:59.167Z,31.13
2018-12-16T22:39:02.395Z,27.23
2018-12-16T22:44:05.598Z,21.97
2018-12-16T22:49:08.904Z,22.07
2018-12-16T22:54:12.214Z,19.40
2018-12-16T22:59:15.440Z,24.87
2018-12-16T23:04:18.673Z,18.73
2018-12-16T23:09:21.906Z,21.50
2018-12-16T23:14:25.116Z,21.93
2018-12-16T23:19:28.364Z,18.43
2018-12-16T23:24:31.790Z,18.47
2018-12-16T23:29:34.991Z,22.00
2018-12-16T23:34:38.223Z,18.73
2018-12-16T23:39:41.458Z,17.93
2018-12-16T23:44:44.683Z,23.63
2018-12-16T23:49:47.993Z,23.03
2018-12-16T23:54:51.201Z,19.93
2018-12-16T23:59:54.609Z,21.43
